Time;durP1;ratioP1;P1;durP2;ratioP2;P2;SDS_P1;SDS_P2;PMS_P1;PMS_P2;Temp;Humidity;BMP_temperature;BMP_pressure;BME280_temperature;BME280_humidity;BME280_pressure;Samples;Min_cycle;Max_cycle;Signal;HPM_P1;HPM_P2
2024/01/05 00:00:20;;;;;;;8.25;2.03;;;7.20;99.90;;;;;;7360258;32;20329;-56
2024/01/05 00:04:22;;;;;;;11.80;1.85;;;7.30;99.90;;;;;;7369542;32;20214;-57
2024/01/05 00:08:24;;;;;;;9.77;2.33;;;7.40;99.90;;;;;;7354351;32;20771;-56
2024/01/05 00:12:25;;;;;;;7.07;1.70;;;7.30;99.90;;;;;;7353129;32;20107;-56
2024/01/05 00:16:27;;;;;;;9.80;2.50;;;7.40;99.90;;;;;;7356731;32;20166;-56
2024/01/05 00:20:29;;;;;;;10.90;1.58;;;7.40;99.90;;;;;;7354453;32;20420;-56
2024/01/05 00:24:31;;;;;;;14.70;1.75;;;7.40;99.90;;;;;;7356459;32;20596;-56
2024/01/05 00:28:32;;;;;;;11.45;2.15;;;7.40;99.90;;;;;;7348060;32;20107;-56
2024/01/05 00:32:34;;;;;;;10.00;1.92;;;7.40;99.90;;;;;;7359535;32;20130;-56
2024/01/05 00:36:36;;;;;;;16.17;2.10;;;7.30;99.90;;;;;;7367095;32;20179;-55
2024/01/05 00:40:38;;;;;;;8.13;1.52;;;7.30;99.90;;;;;;7364804;32;20516;-56
2024/01/05 00:44:41;;;;;;;10.95;1.98;;;7.30;99.90;;;;;;7355175;32;20163;-56
2024/01/05 00:48:42;;;;;;;14.20;1.80;;;7.40;99.90;;;;;;7357187;32;20221;-57
2024/01/05 00:52:44;;;;;;;11.27;1.75;;;7.50;99.90;;;;;;7361994;32;20521;-56
2024/01/05 00:56:46;;;;;;;10.77;1.60;;;7.60;99.90;;;;;;7350336;32;20132;-56
2024/01/05 01:00:48;;;;;;;16.80;2.37;;;7.50;99.90;;;;;;7368514;32;20170;-56
2024/01/05 01:04:50;;;;;;;8.38;1.50;;;7.50;99.90;;;;;;7362133;32;20119;-54
2024/01/05 01:08:52;;;;;;;15.13;2.20;;;7.50;99.90;;;;;;7362225;32;20134;-54
2024/01/05 01:12:53;;;;;;;4.90;1.20;;;7.50;99.90;;;;;;7360197;32;20519;-54
2024/01/05 01:16:56;;;;;;;8.65;1.75;;;7.40;99.90;;;;;;7359515;32;20168;-54
2024/01/05 01:20:57;;;;;;;14.55;1.70;;;7.30;99.90;;;;;;7361862;32;20130;-54
2024/01/05 01:24:59;;;;;;;8.23;1.87;;;7.30;99.90;;;;;;7343490;32;20127;-55
2024/01/05 01:29:01;;;;;;;5.62;1.33;;;7.30;99.90;;;;;;7366770;32;20787;-55
2024/01/05 01:33:03;;;;;;;12.88;2.03;;;7.20;99.90;;;;;;7362773;32;20603;-55
2024/01/05 01:37:05;;;;;;;12.65;1.80;;;7.20;99.90;;;;;;7352849;32;20319;-55
2024/01/05 01:41:07;;;;;;;8.75;1.50;;;7.20;99.90;;;;;;7369924;32;20112;-56
2024/01/05 01:45:09;;;;;;;10.07;1.42;;;7.20;99.90;;;;;;7365679;32;20467;-56
2024/01/05 01:49:11;;;;;;;8.23;1.58;;;7.30;99.90;;;;;;7335809;32;20308;-56
2024/01/05 01:53:16;;;;;;;9.70;1.75;;;7.30;99.90;;;;;;7362022;32;20547;-56
2024/01/05 01:57:18;;;;;;;13.32;1.98;;;7.20;99.90;;;;;;7359695;32;20129;-56
2024/01/05 02:01:21;;;;;;;9.93;1.58;;;7.20;99.90;;;;;;7361248;32;20543;-56
2024/01/05 02:05:23;;;;;;;10.85;1.85;;;7.20;99.90;;;;;;7365628;32;20156;-57
2024/01/05 02:09:25;;;;;;;11.07;1.55;;;7.20;99.90;;;;;;7361470;32;20556;-56
2024/01/05 02:13:27;;;;;;;10.70;1.62;;;7.10;99.90;;;;;;7350655;32;20780;-55
2024/01/05 02:17:33;;;;;;;10.20;1.10;;;7.10;99.90;;;;;;7367885;32;20270;-56
2024/01/05 02:21:42;;;;;;;4.70;1.12;;;7.10;99.90;;;;;;7364574;32;20141;-54
2024/01/05 02:25:43;;;;;;;8.52;1.10;;;6.90;99.90;;;;;;7363137;32;20493;-55
2024/01/05 02:29:45;;;;;;;10.38;1.30;;;6.90;99.90;;;;;;7348439;32;20127;-55
2024/01/05 02:33:47;;;;;;;11.90;1.83;;;6.90;99.90;;;;;;7361785;32;20170;-55
2024/01/05 02:37:49;;;;;;;11.98;2.00;;;6.90;99.90;;;;;;7364101;32;20103;-56
2024/01/05 02:41:51;;;;;;;12.43;1.95;;;6.90;99.90;;;;;;7350309;32;20759;-57
2024/01/05 02:45:53;;;;;;;14.68;1.77;;;6.90;99.90;;;;;;7359460;32;20346;-56
2024/01/05 02:49:55;;;;;;;10.93;1.42;;;6.90;99.90;;;;;;7366111;32;20126;-57
2024/01/05 02:53:56;;;;;;;9.77;1.62;;;6.80;99.90;;;;;;7360773;32;20564;-56
2024/01/05 02:58:02;;;;;;;8.25;1.50;;;6.90;99.90;;;;;;7368149;32;20103;-57
2024/01/05 03:02:04;;;;;;;12.37;1.50;;;6.90;99.90;;;;;;7349383;32;20142;-56
2024/01/05 03:06:05;;;;;;;7.35;1.23;;;7.00;99.90;;;;;;7354718;32;20566;-56
2024/01/05 03:10:07;;;;;;;9.15;1.60;;;6.90;99.90;;;;;;7365326;32;20129;-54
2024/01/05 03:14:09;;;;;;;10.82;1.58;;;6.90;99.90;;;;;;7358973;32;20107;-54
2024/01/05 03:18:11;;;;;;;11.40;1.52;;;6.90;99.90;;;;;;7358183;32;20248;-54
2024/01/05 03:22:13;;;;;;;6.50;1.80;;;6.90;99.90;;;;;;7360254;32;20133;-54
2024/01/05 03:26:15;;;;;;;6.97;1.30;;;6.90;99.90;;;;;;7352706;32;20107;-54
2024/01/05 03:30:16;;;;;;;10.35;1.50;;;6.90;99.90;;;;;;7367690;32;20242;-54
2024/01/05 03:34:18;;;;;;;13.23;1.62;;;6.90;99.90;;;;;;7355595;32;20604;-54
2024/01/05 03:38:20;;;;;;;10.43;1.70;;;6.90;99.90;;;;;;7358431;32;20115;-54
2024/01/05 03:42:23;;;;;;;7.78;1.37;;;6.80;99.90;;;;;;7353108;32;20171;-53
2024/01/05 03:46:24;;;;;;;12.45;1.27;;;6.80;99.90;;;;;;7362740;32;20103;-54
2024/01/05 03:50:26;;;;;;;13.43;2.22;;;6.90;99.90;;;;;;7352654;32;20190;-54
2024/01/05 03:54:29;;;;;;;4.85;1.15;;;6.80;99.90;;;;;;7353998;32;20104;-55
2024/01/05 03:58:30;;;;;;;8.82;1.15;;;6.80;99.90;;;;;;7358636;32;20176;-56
2024/01/05 04:02:32;;;;;;;9.35;1.27;;;6.80;99.90;;;;;;7355500;32;20197;-55
2024/01/05 04:06:34;;;;;;;10.10;1.42;;;6.80;99.90;;;;;;7361154;32;20127;-55
2024/01/05 04:10:37;;;;;;;9.20;1.60;;;6.90;99.90;;;;;;7363535;32;20099;-55
2024/01/05 04:14:39;;;;;;;8.23;1.95;;;6.90;99.90;;;;;;7365481;32;20091;-54
2024/01/05 04:18:41;;;;;;;9.25;1.15;;;7.10;99.90;;;;;;7362001;32;20198;-56
2024/01/05 04:22:43;;;;;;;8.38;1.58;;;7.20;99.90;;;;;;7366037;32;20155;-55
2024/01/05 04:26:45;;;;;;;11.00;1.30;;;7.30;99.90;;;;;;7367098;32;20461;-55
2024/01/05 04:30:47;;;;;;;9.10;1.60;;;7.30;99.90;;;;;;7364967;32;20098;-55
2024/01/05 04:34:49;;;;;;;7.80;1.40;;;7.40;99.90;;;;;;7369563;32;20133;-54
2024/01/05 04:38:51;;;;;;;9.60;1.70;;;7.50;99.90;;;;;;7356896;32;20152;-55
2024/01/05 04:42:53;;;;;;;7.75;1.40;;;7.50;99.90;;;;;;7363789;32;20210;-55
2024/01/05 04:46:55;;;;;;;7.50;1.40;;;7.60;99.90;;;;;;7348614;32;20280;-55
2024/01/05 04:50:57;;;;;;;7.03;1.60;;;7.70;99.90;;;;;;7365411;32;20290;-54
2024/01/05 04:55:00;;;;;;;7.50;1.50;;;7.70;99.90;;;;;;7364965;32;20137;-54
2024/01/05 04:59:01;;;;;;;6.40;1.17;;;7.80;99.90;;;;;;7351607;32;20232;-54
2024/01/05 05:03:04;;;;;;;8.80;1.50;;;7.80;99.90;;;;;;7351378;32;20230;-54
2024/01/05 05:07:06;;;;;;;9.45;1.40;;;7.80;99.90;;;;;;7361301;32;20460;-54
2024/01/05 05:11:08;;;;;;;7.55;1.23;;;7.80;99.90;;;;;;7363849;32;20152;-54
2024/01/05 05:15:10;;;;;;;5.65;1.15;;;7.80;99.90;;;;;;7358873;32;20162;-55
2024/01/05 05:19:12;;;;;;;4.32;1.17;;;7.80;99.90;;;;;;7350762;32;20212;-54
2024/01/05 05:23:14;;;;;;;4.30;1.20;;;7.90;99.90;;;;;;7369221;32;20122;-53
2024/01/05 05:27:15;;;;;;;8.80;1.48;;;7.90;99.90;;;;;;7363264;32;20285;-54
2024/01/05 05:31:17;;;;;;;6.03;1.27;;;7.90;99.90;;;;;;7367394;32;20145;-54
2024/01/05 05:35:19;;;;;;;8.95;1.30;;;7.90;99.90;;;;;;7373614;32;20509;-54
2024/01/05 05:39:21;;;;;;;7.47;1.40;;;7.90;99.90;;;;;;7367395;32;20158;-54
2024/01/05 05:43:23;;;;;;;7.15;1.48;;;7.80;99.90;;;;;;7363521;32;20672;-54
2024/01/05 05:47:25;;;;;;;7.55;1.75;;;7.80;99.90;;;;;;7365881;32;20126;-54
2024/01/05 05:51:27;;;;;;;7.97;1.20;;;7.70;99.90;;;;;;7360057;32;20674;-54
2024/01/05 05:55:28;;;;;;;5.32;1.10;;;7.60;99.90;;;;;;7365748;32;20523;-54
2024/01/05 05:59:30;;;;;;;7.87;1.45;;;7.60;99.90;;;;;;7364040;32;20131;-54
2024/01/05 06:03:32;;;;;;;5.97;1.50;;;7.50;99.90;;;;;;7362322;32;20165;-55
2024/01/05 06:07:33;;;;;;;4.97;1.65;;;7.40;99.90;;;;;;7361382;32;20972;-55
2024/01/05 06:11:35;;;;;;;3.97;1.05;;;7.40;99.90;;;;;;7371929;32;20170;-54
2024/01/05 06:15:37;;;;;;;6.87;1.60;;;7.50;99.90;;;;;;7360452;32;20546;-55
2024/01/05 06:19:39;;;;;;;6.07;1.30;;;7.40;99.90;;;;;;7363745;32;20138;-54
2024/01/05 06:23:41;;;;;;;5.85;1.20;;;7.40;99.90;;;;;;7358463;32;20103;-54
2024/01/05 06:27:42;;;;;;;7.28;1.40;;;7.40;99.90;;;;;;7367272;32;20131;-55
2024/01/05 06:31:44;;;;;;;3.75;1.08;;;7.40;99.90;;;;;;7369275;32;20138;-55
2024/01/05 06:35:47;;;;;;;9.50;2.00;;;7.40;99.90;;;;;;7365272;32;20094;-54
2024/01/05 06:39:49;;;;;;;5.85;1.20;;;7.50;99.90;;;;;;7362127;32;20133;-54
2024/01/05 06:43:50;;;;;;;9.02;1.40;;;7.40;99.90;;;;;;7356799;32;20146;-55
2024/01/05 06:47:52;;;;;;;7.28;1.25;;;7.40;99.90;;;;;;7360335;32;20301;-55
2024/01/05 06:51:54;;;;;;;5.50;1.10;;;7.50;99.90;;;;;;7369419;32;20137;-55
2024/01/05 06:55:56;;;;;;;7.43;1.20;;;7.60;99.90;;;;;;7362975;32;20430;-55
2024/01/05 06:59:58;;;;;;;7.68;1.30;;;7.70;99.90;;;;;;7361975;32;20126;-55
2024/01/05 07:04:00;;;;;;;6.35;1.60;;;7.80;99.90;;;;;;7359911;32;20726;-55
2024/01/05 07:08:02;;;;;;;5.82;1.50;;;7.80;99.90;;;;;;7368974;32;20230;-55
2024/01/05 07:12:04;;;;;;;6.05;1.55;;;7.80;99.90;;;;;;7358671;32;20530;-55
2024/01/05 07:16:17;;;;;;;5.22;1.40;;;7.90;99.90;;;;;;7359868;32;20096;-55
2024/01/05 07:20:19;;;;;;;5.18;1.02;;;8.00;99.90;;;;;;7365395;32;20521;-54
2024/01/05 07:24:21;;;;;;;6.80;1.23;;;8.00;99.90;;;;;;7355605;32;20710;-56
2024/01/05 07:28:22;;;;;;;5.65;2.05;;;8.00;99.90;;;;;;7354346;32;20256;-55
2024/01/05 07:32:24;;;;;;;6.12;1.15;;;8.10;99.90;;;;;;7365443;32;20680;-55
2024/01/05 07:36:26;;;;;;;4.47;1.00;;;8.10;99.90;;;;;;7363036;32;20142;-55
2024/01/05 07:40:27;;;;;;;6.60;1.10;;;8.20;99.90;;;;;;7365479;32;20107;-55
2024/01/05 07:44:29;;;;;;;7.37;1.10;;;8.20;99.90;;;;;;7362531;32;20641;-56
2024/01/05 07:48:31;;;;;;;9.68;1.20;;;8.20;99.90;;;;;;7358917;32;20256;-56
2024/01/05 07:52:33;;;;;;;7.60;1.17;;;8.20;99.90;;;;;;7351081;32;20232;-55
2024/01/05 07:56:38;;;;;;;3.83;0.80;;;8.20;99.90;;;;;;7355532;32;20641;-55
2024/01/05 08:00:39;;;;;;;7.60;1.10;;;8.10;99.90;;;;;;7357479;32;20159;-56
2024/01/05 08:04:41;;;;;;;4.72;0.88;;;8.20;99.90;;;;;;7358853;32;20548;-55
2024/01/05 08:08:47;;;;;;;6.80;1.17;;;8.20;99.90;;;;;;7358431;32;20677;-55
2024/01/05 08:12:49;;;;;;;4.85;1.10;;;8.20;99.90;;;;;;7362436;32;20149;-56
2024/01/05 08:16:51;;;;;;;5.87;1.00;;;8.20;99.90;;;;;;7358871;32;20171;-56
2024/01/05 08:20:52;;;;;;;5.45;0.90;;;8.30;99.90;;;;;;7352580;32;20583;-55
2024/01/05 08:24:54;;;;;;;3.75;0.60;;;8.30;99.90;;;;;;7359229;32;20441;-56
2024/01/05 08:28:56;;;;;;;4.07;0.75;;;8.30;99.90;;;;;;7354318;32;20100;-56
2024/01/05 08:32:58;;;;;;;5.25;0.93;;;8.40;99.90;;;;;;7361721;32;20163;-55
2024/01/05 08:37:00;;;;;;;4.80;0.85;;;8.40;99.90;;;;;;7355901;32;20170;-55
2024/01/05 08:41:02;;;;;;;8.00;1.08;;;8.40;99.90;;;;;;7357960;32;20195;-56
2024/01/05 08:45:04;;;;;;;2.15;0.60;;;8.40;99.90;;;;;;7357364;32;20467;-56
2024/01/05 08:49:06;;;;;;;3.03;0.68;;;8.40;99.90;;;;;;7357093;32;20107;-56
2024/01/05 08:53:11;;;;;;;3.15;0.50;;;8.50;99.90;;;;;;7354728;32;20108;-56
2024/01/05 08:57:13;;;;;;;2.97;0.43;;;8.50;99.90;;;;;;7360853;32;20190;-56
2024/01/05 09:01:15;;;;;;;3.75;0.52;;;8.50;99.90;;;;;;7365950;32;20114;-55
2024/01/05 09:05:16;;;;;;;1.15;0.35;;;8.50;99.90;;;;;;7363774;32;20490;-64
2024/01/05 09:09:18;;;;;;;1.62;0.60;;;8.60;99.90;;;;;;7362090;32;20182;-56
2024/01/05 09:13:20;;;;;;;1.02;0.30;;;8.60;99.90;;;;;;7358130;32;20265;-56
2024/01/05 09:17:22;;;;;;;1.42;0.37;;;8.50;99.90;;;;;;7362396;32;20099;-55
2024/01/05 09:21:23;;;;;;;0.75;0.15;;;8.50;99.90;;;;;;7364624;32;20148;-56
2024/01/05 09:25:25;;;;;;;3.67;0.20;;;8.40;99.90;;;;;;7359749;32;20110;-56
2024/01/05 09:29:27;;;;;;;0.43;0.20;;;8.40;99.90;;;;;;7359580;32;20114;-62
2024/01/05 09:33:29;;;;;;;1.08;0.10;;;8.60;99.90;;;;;;7363639;32;20557;-57
2024/01/05 09:37:30;;;;;;;0.45;0.10;;;8.70;99.90;;;;;;7363655;32;20206;-57
2024/01/05 09:41:33;;;;;;;1.00;0.32;;;8.60;99.90;;;;;;7360606;32;20193;-57
2024/01/05 09:45:39;;;;;;;0.80;0.20;;;8.50;99.90;;;;;;7363834;32;20227;-56
2024/01/05 09:49:44;;;;;;;1.00;0.10;;;8.40;99.90;;;;;;7372330;32;20535;-55
2024/01/05 09:53:46;;;;;;;1.90;0.20;;;8.40;99.90;;;;;;7363811;32;20119;-56
2024/01/05 09:57:50;;;;;;;0.60;0.20;;;8.40;99.90;;;;;;7364000;32;20520;-55
2024/01/05 10:01:53;;;;;;;2.10;0.10;;;8.30;99.90;;;;;;7364457;32;20517;-56
2024/01/05 10:05:56;;;;;;;1.87;0.20;;;8.30;99.90;;;;;;7360848;32;20131;-56
2024/01/05 10:09:58;;;;;;;0.20;0.10;;;8.30;99.90;;;;;;7353629;32;20682;-56
2024/01/05 10:14:04;;;;;;;0.47;0.10;;;8.30;99.90;;;;;;7363711;32;20760;-55
2024/01/05 10:18:24;;;;;;;2.15;0.30;;;8.30;99.90;;;;;;7359439;32;20114;-56
2024/01/05 10:22:27;;;;;;;1.27;0.20;;;8.30;99.90;;;;;;7338941;32;20607;-56
2024/01/05 10:26:32;;;;;;;1.67;0.10;;;8.30;99.90;;;;;;7347255;32;20114;-56
2024/01/05 10:30:34;;;;;;;0.70;0.10;;;8.30;99.90;;;;;;7355157;32;20111;-56
2024/01/05 10:34:36;;;;;;;0.62;0.20;;;8.30;99.90;;;;;;7364500;32;20477;-56
2024/01/05 10:38:38;;;;;;;1.08;0.25;;;8.30;99.90;;;;;;7356762;32;20226;-57
2024/01/05 10:42:40;;;;;;;0.60;0.15;;;8.20;99.90;;;;;;7364431;32;20698;-56
2024/01/05 10:46:43;;;;;;;1.08;0.20;;;8.20;99.90;;;;;;7359909;32;20168;-56
2024/01/05 10:50:46;;;;;;;1.17;0.20;;;8.20;99.90;;;;;;7350663;32;20130;-57
2024/01/05 10:54:50;;;;;;;0.45;0.20;;;8.10;99.90;;;;;;7356519;32;20485;-56
2024/01/05 10:58:52;;;;;;;0.37;0.20;;;8.10;99.90;;;;;;7345782;32;20139;-57
2024/01/05 11:03:17;;;;;;;0.52;0.22;;;8.10;99.90;;;;;;7361129;32;20099;-56
2024/01/05 11:07:23;;;;;;;2.40;0.30;;;8.10;99.90;;;;;;7362396;32;20311;-56
2024/01/05 11:11:43;;;;;;;0.88;0.28;;;8.10;99.90;;;;;;7360519;32;20149;-56
2024/01/05 11:16:23;;;;;;;1.40;0.28;;;8.00;99.90;;;;;;7361531;32;20528;-56
2024/01/05 11:20:54;;;;;;;1.83;0.20;;;8.10;99.90;;;;;;7367626;32;20190;-56
2024/01/05 11:24:57;;;;;;;2.00;0.35;;;8.20;99.90;;;;;;7361839;32;20502;-56
2024/01/05 11:28:59;;;;;;;1.23;0.47;;;8.20;99.90;;;;;;7352437;32;20158;-54
2024/01/05 11:33:01;;;;;;;1.90;0.50;;;8.20;99.90;;;;;;7364629;32;20151;-55
2024/01/05 11:37:08;;;;;;;1.27;0.30;;;8.20;99.90;;;;;;7363747;32;20283;-56
2024/01/05 11:41:20;;;;;;;0.50;0.30;;;8.20;99.90;;;;;;7359646;32;20414;-56
2024/01/05 11:45:43;;;;;;;1.77;0.32;;;8.20;99.90;;;;;;7346811;32;20138;-56
2024/01/05 11:49:47;;;;;;;4.82;0.55;;;8.20;99.90;;;;;;7353319;32;20125;-56
2024/01/05 11:53:49;;;;;;;1.65;0.40;;;8.30;99.90;;;;;;7361406;32;20128;-56
2024/01/05 11:57:51;;;;;;;2.83;0.50;;;8.20;99.90;;;;;;7362282;32;20334;-55
2024/01/05 12:01:53;;;;;;;1.30;0.28;;;8.20;99.90;;;;;;7364986;32;20558;-55
2024/01/05 12:06:03;;;;;;;1.62;0.40;;;8.20;99.90;;;;;;7358785;32;20244;-55
2024/01/05 12:10:05;;;;;;;1.60;0.40;;;8.10;99.90;;;;;;7368025;32;20141;-56
2024/01/05 12:14:07;;;;;;;1.92;0.55;;;8.10;99.90;;;;;;7358245;32;20161;-56
2024/01/05 12:18:09;;;;;;;0.88;0.40;;;8.10;99.90;;;;;;7352979;32;20284;-56
2024/01/05 12:22:28;;;;;;;1.62;0.37;;;8.20;99.90;;;;;;7360919;32;20148;-56
2024/01/05 12:26:30;;;;;;;1.83;0.50;;;8.10;99.90;;;;;;7367845;32;20191;-55
2024/01/05 12:30:33;;;;;;;4.03;0.30;;;8.10;99.90;;;;;;7365799;32;20567;-56
2024/01/05 12:34:38;;;;;;;2.58;0.50;;;8.00;99.90;;;;;;7362764;32;20189;-54
2024/01/05 12:38:40;;;;;;;2.15;0.20;;;8.10;99.90;;;;;;7360635;32;20659;-56
2024/01/05 12:42:44;;;;;;;3.12;0.47;;;8.00;99.90;;;;;;7366055;32;20321;-56
2024/01/05 12:46:46;;;;;;;1.92;0.40;;;8.00;99.90;;;;;;7362313;32;20218;-56
2024/01/05 12:50:48;;;;;;;0.45;0.32;;;8.00;99.90;;;;;;7355598;32;20121;-55
2024/01/05 12:54:50;;;;;;;0.70;0.30;;;7.90;99.90;;;;;;7362460;32;20579;-56
2024/01/05 12:58:53;;;;;;;3.30;0.60;;;7.90;99.90;;;;;;7369380;32;20446;-56
2024/01/05 13:02:55;;;;;;;3.22;0.50;;;7.70;99.90;;;;;;7361814;32;20155;-56
2024/01/05 13:06:56;;;;;;;2.70;0.50;;;7.60;99.90;;;;;;7363620;32;20195;-56
2024/01/05 13:10:58;;;;;;;3.17;0.60;;;7.50;99.90;;;;;;7362292;32;20130;-56
2024/01/05 13:15:01;;;;;;;1.67;0.60;;;7.40;99.90;;;;;;7361407;32;20215;-56
2024/01/05 13:19:05;;;;;;;6.75;0.75;;;7.40;99.90;;;;;;7363906;32;20202;-56
2024/01/05 13:23:07;;;;;;;4.18;0.85;;;7.30;99.90;;;;;;7363453;32;20190;-56
2024/01/05 13:27:09;;;;;;;4.30;0.68;;;7.20;99.90;;;;;;7368540;32;20236;-56
2024/01/05 13:31:11;;;;;;;5.72;0.80;;;7.10;99.90;;;;;;7361907;32;20158;-56
2024/01/05 13:35:13;;;;;;;4.78;0.75;;;7.10;99.90;;;;;;7357918;32;20193;-56
2024/01/05 13:39:14;;;;;;;2.10;0.60;;;7.00;99.90;;;;;;7366056;32;20120;-56
2024/01/05 13:43:16;;;;;;;4.50;0.90;;;7.00;99.90;;;;;;7349367;32;20159;-56
2024/01/05 13:47:18;;;;;;;4.18;0.77;;;7.00;99.90;;;;;;7359259;32;20489;-56
2024/01/05 13:51:20;;;;;;;5.70;0.73;;;7.00;99.90;;;;;;7355854;32;20237;-56
2024/01/05 13:55:22;;;;;;;5.15;0.85;;;7.00;99.90;;;;;;7363541;32;20255;-56
2024/01/05 13:59:24;;;;;;;3.90;0.82;;;7.00;99.90;;;;;;7353056;32;20241;-55
2024/01/05 14:03:28;;;;;;;4.93;0.80;;;7.10;99.90;;;;;;7366476;32;20589;-56
2024/01/05 14:07:30;;;;;;;5.30;0.80;;;7.10;99.90;;;;;;7364022;32;20095;-56
2024/01/05 14:11:32;;;;;;;3.30;0.50;;;7.10;99.90;;;;;;7349551;32;20119;-56
2024/01/05 14:15:34;;;;;;;2.12;0.50;;;7.10;99.90;;;;;;7362271;32;20558;-55
2024/01/05 14:19:39;;;;;;;20.33;8.18;;;7.10;99.90;;;;;;7357877;32;20126;-54
2024/01/05 14:23:41;;;;;;;3.35;0.60;;;7.10;99.90;;;;;;7366632;32;20175;-55
2024/01/05 14:27:43;;;;;;;4.30;0.60;;;7.00;99.90;;;;;;7364099;32;20264;-55
2024/01/05 14:31:45;;;;;;;4.75;0.70;;;7.00;99.90;;;;;;7368008;32;20144;-55
2024/01/05 14:35:47;;;;;;;3.75;0.70;;;6.90;99.90;;;;;;7358098;32;20099;-55
2024/01/05 14:39:49;;;;;;;4.82;0.50;;;6.90;99.90;;;;;;7365269;32;20214;-55
2024/01/05 14:43:51;;;;;;;1.95;0.60;;;6.90;99.90;;;;;;7369087;32;20190;-57
2024/01/05 14:47:52;;;;;;;2.55;0.60;;;6.90;99.90;;;;;;7364086;32;20107;-55
2024/01/05 14:51:59;;;;;;;2.62;0.40;;;6.90;99.90;;;;;;7365207;32;20796;-56
2024/01/05 14:56:02;;;;;;;2.33;0.75;;;6.90;99.90;;;;;;7361051;32;20122;-56
2024/01/05 15:00:05;;;;;;;2.97;0.57;;;6.90;99.90;;;;;;7370051;32;20213;-55
2024/01/05 15:04:07;;;;;;;4.85;0.50;;;6.90;99.90;;;;;;7358599;32;20187;-56
2024/01/05 15:08:09;;;;;;;4.10;0.90;;;6.90;99.90;;;;;;7360633;32;20111;-55
2024/01/05 15:12:11;;;;;;;5.90;0.82;;;6.90;99.90;;;;;;7354300;32;20131;-56
2024/01/05 15:16:13;;;;;;;3.72;0.80;;;6.80;99.90;;;;;;7366362;32;20232;-56
2024/01/05 15:20:16;;;;;;;2.00;0.45;;;6.80;99.90;;;;;;7358339;32;20205;-55
2024/01/05 15:24:18;;;;;;;4.40;0.70;;;6.80;99.90;;;;;;7334181;32;20121;-56
2024/01/05 15:28:19;;;;;;;5.10;0.98;;;6.80;99.90;;;;;;7351693;32;20141;-55
2024/01/05 15:32:21;;;;;;;2.03;0.65;;;6.80;99.90;;;;;;7357762;32;20276;-56
2024/01/05 15:36:23;;;;;;;6.97;1.02;;;6.70;99.90;;;;;;7360155;32;20223;-63
2024/01/05 15:40:26;;;;;;;4.72;0.77;;;6.70;99.90;;;;;;7364358;32;20353;-55
2024/01/05 15:44:32;;;;;;;9.00;1.00;;;6.80;99.90;;;;;;7367014;32;20155;-55
2024/01/05 15:48:34;;;;;;;5.43;1.00;;;6.90;99.90;;;;;;7361306;32;20106;-55
2024/01/05 15:52:36;;;;;;;3.55;0.80;;;7.00;99.90;;;;;;7350441;32;20237;-54
2024/01/05 15:56:46;;;;;;;3.90;0.90;;;7.00;99.90;;;;;;7362748;32;20480;-54
2024/01/05 16:00:48;;;;;;;6.25;1.08;;;7.00;99.90;;;;;;7354596;32;20122;-54
2024/01/05 16:04:49;;;;;;;4.20;0.77;;;6.90;99.90;;;;;;7359708;32;20343;-54
2024/01/05 16:08:51;;;;;;;4.62;0.90;;;6.90;99.90;;;;;;7364409;32;20157;-56
2024/01/05 16:12:53;;;;;;;4.82;1.02;;;6.90;99.90;;;;;;7361233;32;20114;-57
2024/01/05 16:16:57;;;;;;;6.00;1.00;;;6.90;99.90;;;;;;7362062;32;20234;-56
2024/01/05 16:20:59;;;;;;;3.75;1.00;;;6.80;99.90;;;;;;7360841;32;20256;-56
2024/01/05 16:25:01;;;;;;;3.28;1.10;;;6.80;99.90;;;;;;7361897;32;20099;-56
2024/01/05 16:29:02;;;;;;;3.35;1.05;;;6.80;99.90;;;;;;7358812;32;20208;-54
2024/01/05 16:33:04;;;;;;;6.03;0.88;;;6.80;99.90;;;;;;7364254;32;20514;-54
2024/01/05 16:37:07;;;;;;;4.10;1.17;;;6.70;99.90;;;;;;7363179;32;20137;-56
2024/01/05 16:41:09;;;;;;;3.05;0.93;;;6.70;99.90;;;;;;7361431;32;20255;-56
2024/01/05 16:45:12;;;;;;;7.22;1.33;;;6.70;99.90;;;;;;7361612;32;20139;-56
2024/01/05 16:49:14;;;;;;;3.25;1.55;;;6.70;99.90;;;;;;7358230;32;20556;-58
2024/01/05 16:53:16;;;;;;;6.37;1.67;;;6.70;99.90;;;;;;7351938;32;20245;-54
2024/01/05 16:57:17;;;;;;;7.35;1.50;;;6.70;99.90;;;;;;7362233;32;20877;-54
2024/01/05 17:01:19;;;;;;;6.62;1.10;;;6.70;99.90;;;;;;7355940;32;20107;-54
2024/01/05 17:05:21;;;;;;;7.10;1.27;;;6.80;99.90;;;;;;7360644;32;20123;-55
2024/01/05 17:09:23;;;;;;;5.20;1.70;;;6.80;99.90;;;;;;7359131;32;20194;-54
2024/01/05 17:13:25;;;;;;;4.32;1.40;;;6.80;99.90;;;;;;7366452;32;20197;-55
2024/01/05 17:17:30;;;;;;;5.60;1.35;;;6.80;99.90;;;;;;7363783;32;20127;-54
2024/01/05 17:21:31;;;;;;;3.15;1.27;;;6.80;99.90;;;;;;7364219;32;20392;-56
2024/01/05 17:25:33;;;;;;;4.87;1.58;;;6.80;99.90;;;;;;7364495;32;20278;-55
2024/01/05 17:29:35;;;;;;;5.87;1.20;;;6.80;99.90;;;;;;7366088;32;20129;-55
2024/01/05 17:33:38;;;;;;;5.22;1.48;;;6.80;99.90;;;;;;7365935;32;20111;-54
2024/01/05 17:37:40;;;;;;;7.32;1.62;;;6.70;99.90;;;;;;7362871;32;20181;-56
2024/01/05 17:41:42;;;;;;;4.85;1.75;;;6.70;99.90;;;;;;7347735;32;20123;-54
2024/01/05 17:45:44;;;;;;;3.65;1.87;;;6.70;99.90;;;;;;7345818;32;20123;-54
2024/01/05 17:49:47;;;;;;;6.68;1.70;;;6.80;99.90;;;;;;7365161;32;20269;-55
2024/01/05 17:53:49;;;;;;;8.57;1.98;;;6.80;99.90;;;;;;7371351;32;20544;-56
2024/01/05 17:57:51;;;;;;;3.97;1.75;;;6.80;99.90;;;;;;7362543;32;20494;-54
2024/01/05 18:01:53;;;;;;;4.25;1.70;;;6.80;99.90;;;;;;7361977;32;20162;-54
2024/01/05 18:05:54;;;;;;;3.97;1.60;;;6.80;99.90;;;;;;7364037;32;20186;-55
2024/01/05 18:09:56;;;;;;;4.30;1.90;;;6.80;99.90;;;;;;7368122;32;20190;-54
2024/01/05 18:14:01;;;;;;;3.70;1.40;;;6.80;99.90;;;;;;7358605;32;20169;-55
2024/01/05 18:18:03;;;;;;;2.53;1.40;;;6.80;99.90;;;;;;7359680;32;20221;-54
2024/01/05 18:22:06;;;;;;;2.97;1.45;;;6.90;99.90;;;;;;7357350;32;20614;-55
2024/01/05 18:26:07;;;;;;;2.45;1.40;;;6.90;99.90;;;;;;7360726;32;20182;-56
2024/01/05 18:30:09;;;;;;;5.45;1.50;;;6.90;99.90;;;;;;7356292;32;20676;-54
2024/01/05 18:34:11;;;;;;;2.42;1.40;;;6.80;99.90;;;;;;7354660;32;20775;-55
2024/01/05 18:38:14;;;;;;;3.65;1.62;;;6.80;99.90;;;;;;7357737;32;20227;-55
2024/01/05 18:42:15;;;;;;;4.78;2.00;;;6.80;99.90;;;;;;7362814;32;20210;-55
2024/01/05 18:46:18;;;;;;;5.22;2.12;;;6.80;99.90;;;;;;7360057;32;20246;-56
2024/01/05 18:50:19;;;;;;;3.30;1.90;;;6.80;99.90;;;;;;7364217;32;20196;-54
2024/01/05 18:54:21;;;;;;;3.40;1.80;;;6.80;99.90;;;;;;7358492;32;20743;-56
2024/01/05 18:58:23;;;;;;;4.47;2.20;;;6.80;99.90;;;;;;7369568;32;20111;-55
2024/01/05 19:02:25;;;;;;;5.05;2.60;;;6.80;99.90;;;;;;7362328;32;20161;-55
2024/01/05 19:06:26;;;;;;;4.28;2.30;;;6.80;99.90;;;;;;7358445;32;20664;-55
2024/01/05 19:10:30;;;;;;;3.28;2.37;;;6.80;99.90;;;;;;7362935;32;20276;-54
2024/01/05 19:14:32;;;;;;;3.97;2.30;;;6.80;99.90;;;;;;7365559;32;20500;-54
2024/01/05 19:18:34;;;;;;;4.55;2.72;;;6.80;99.90;;;;;;7360111;32;20467;-55
2024/01/05 19:22:40;;;;;;;5.10;2.70;;;6.80;99.90;;;;;;7360915;32;20309;-55
2024/01/05 19:26:42;;;;;;;4.72;2.47;;;6.80;99.90;;;;;;7360355;32;20206;-56
2024/01/05 19:30:44;;;;;;;5.25;2.70;;;6.80;99.90;;;;;;7363409;32;20135;-55
2024/01/05 19:34:46;;;;;;;4.43;2.60;;;6.70;99.90;;;;;;7366581;32;20087;-55
2024/01/05 19:38:47;;;;;;;3.33;2.60;;;6.70;99.90;;;;;;7362166;32;20168;-54
2024/01/05 19:42:49;;;;;;;4.87;2.83;;;6.70;99.90;;;;;;7365023;32;20873;-54
2024/01/05 19:46:51;;;;;;;5.75;3.28;;;6.70;99.90;;;;;;7360148;32;20107;-56
2024/01/05 19:50:52;;;;;;;5.28;3.70;;;6.60;99.90;;;;;;7366405;32;20126;-55
2024/01/05 19:54:56;;;;;;;4.28;2.97;;;6.60;99.90;;;;;;7360917;32;20213;-55
2024/01/05 19:58:58;;;;;;;4.57;3.28;;;6.60;99.90;;;;;;7362731;32;20229;-55
2024/01/05 20:03:00;;;;;;;6.30;4.22;;;6.60;99.90;;;;;;7358046;32;20107;-55
2024/01/05 20:07:01;;;;;;;6.43;3.47;;;6.60;99.90;;;;;;7363444;32;20254;-55
2024/01/05 20:11:08;;;;;;;4.85;3.70;;;6.60;99.90;;;;;;7360692;32;21031;-55
2024/01/05 20:15:10;;;;;;;3.67;3.08;;;6.60;99.90;;;;;;7360078;32;20224;-54
2024/01/05 20:19:12;;;;;;;6.78;3.90;;;6.60;99.90;;;;;;7354905;32;20655;-55
2024/01/05 20:23:14;;;;;;;5.28;3.97;;;6.60;99.90;;;;;;7358728;32;20158;-55
2024/01/05 20:27:16;;;;;;;5.35;3.90;;;6.50;99.90;;;;;;7363451;32;20584;-55
2024/01/05 20:31:18;;;;;;;7.10;4.97;;;6.60;99.90;;;;;;7361914;32;20229;-55
2024/01/05 20:35:20;;;;;;;6.95;5.12;;;6.60;99.90;;;;;;7352802;32;20684;-56
2024/01/05 20:39:22;;;;;;;7.45;4.68;;;6.60;99.90;;;;;;7341603;32;20481;-55
2024/01/05 20:43:24;;;;;;;7.47;4.90;;;6.50;99.90;;;;;;7353731;32;20512;-54
2024/01/05 20:47:26;;;;;;;10.75;5.45;;;6.60;99.90;;;;;;7355781;32;20139;-54
2024/01/05 20:51:28;;;;;;;7.18;5.47;;;6.60;99.90;;;;;;7361282;32;20138;-54
2024/01/05 20:55:30;;;;;;;8.02;5.87;;;6.60;99.90;;;;;;7350858;32;20111;-53
2024/01/05 20:59:32;;;;;;;7.28;5.50;;;6.60;99.90;;;;;;7360587;32;20149;-55
2024/01/05 21:03:34;;;;;;;8.82;5.70;;;6.60;99.90;;;;;;7358946;32;20139;-54
2024/01/05 21:07:39;;;;;;;8.65;5.75;;;6.60;99.90;;;;;;7365022;32;20411;-54
2024/01/05 21:11:41;;;;;;;6.87;5.57;;;6.60;99.90;;;;;;7366330;32;20589;-54
2024/01/05 21:15:42;;;;;;;8.70;6.07;;;6.60;99.90;;;;;;7363443;32;20325;-53